createdAt,value
2022-12-05T00:01:56.288Z,7.58
2022-12-05T00:04:24.459Z,7.43
2022-12-05T00:06:52.554Z,7.22
2022-12-05T00:09:21.001Z,7.48
2022-12-05T00:11:49.012Z,7.18
2022-12-05T00:14:17.367Z,7.44
2022-12-05T00:16:46.067Z,7.47
2022-12-05T00:19:16.561Z,7.29
2022-12-05T00:21:45.405Z,7.41
2022-12-05T00:24:16.064Z,7.41
2022-12-05T00:26:44.782Z,6.72
2022-12-05T00:29:13.117Z,6.89
2022-12-05T00:31:41.674Z,7.20
2022-12-05T00:34:10.023Z,7.74
2022-12-05T00:36:39.578Z,7.54
2022-12-05T00:39:09.163Z,7.22
2022-12-05T00:41:37.947Z,7.01
2022-12-05T00:44:06.489Z,7.51
2022-12-05T00:46:36.207Z,7.42
2022-12-05T00:49:06.417Z,7.39
2022-12-05T00:51:37.156Z,7.06
2022-12-05T00:54:09.371Z,7.21
2022-12-05T00:56:37.890Z,7.26
2022-12-05T00:59:07.087Z,7.22
2022-12-05T01:01:37.431Z,7.02
2022-12-05T01:04:08.349Z,7.38
2022-12-05T01:06:36.694Z,7.61
2022-12-05T01:09:07.292Z,7.36
2022-12-05T01:11:40.919Z,6.98
2022-12-05T01:14:10.126Z,7.05
2022-12-05T01:16:41.396Z,6.91
2022-12-05T01:19:13.113Z,6.75
2022-12-05T01:21:41.944Z,7.13
2022-12-05T01:24:13.341Z,7.32
2022-12-05T01:26:41.897Z,7.50
2022-12-05T01:29:10.881Z,7.52
2022-12-05T01:31:39.942Z,7.58
2022-12-05T01:34:12.293Z,7.16
2022-12-05T01:36:41.060Z,7.49
2022-12-05T01:39:10.814Z,7.43
2022-12-05T01:41:43.567Z,6.58
2022-12-05T01:44:45.970Z,6.89
2022-12-05T01:47:17.662Z,7.11
2022-12-05T01:49:46.536Z,6.90
2022-12-05T01:52:19.612Z,6.63
2022-12-05T01:54:51.703Z,6.84
2022-12-05T01:57:21.438Z,7.01
2022-12-05T01:59:55.282Z,6.77
2022-12-05T02:02:23.921Z,7.12
2022-12-05T02:05:01.439Z,7.22
2022-12-05T02:07:30.139Z,7.30
2022-12-05T02:09:58.503Z,6.97
2022-12-05T02:12:28.280Z,7.03
2022-12-05T02:15:19.625Z,6.89
2022-12-05T02:18:00.918Z,7.08
2022-12-05T02:20:45.900Z,6.72
2022-12-05T02:23:44.084Z,7.05
2022-12-05T02:26:38.923Z,6.94
2022-12-05T02:29:31.139Z,6.95
2022-12-05T02:32:07.776Z,6.86
2022-12-05T02:34:44.438Z,6.73
2022-12-05T02:37:18.200Z,6.72
2022-12-05T02:39:53.252Z,6.61
2022-12-05T02:42:27.976Z,6.70
2022-12-05T02:45:00.862Z,6.66
2022-12-05T02:47:35.853Z,6.85
2022-12-05T02:50:04.873Z,6.64
2022-12-05T02:52:35.019Z,6.39
2022-12-05T02:55:04.862Z,6.37
2022-12-05T02:57:35.378Z,6.54
2022-12-05T03:00:03.529Z,6.38
2022-12-05T03:02:34.895Z,6.50
2022-12-05T03:05:14.333Z,6.08
2022-12-05T03:07:46.369Z,6.19
2022-12-05T03:10:16.926Z,6.44
2022-12-05T03:12:51.964Z,6.86
2022-12-05T03:15:24.649Z,6.77
2022-12-05T03:18:04.537Z,6.65
2022-12-05T03:20:35.665Z,6.29
2022-12-05T03:23:07.453Z,6.52
2022-12-05T03:25:41.654Z,6.58
2022-12-05T03:28:19.170Z,6.47
2022-12-05T03:30:50.640Z,6.53
2022-12-05T03:33:24.724Z,6.45
2022-12-05T03:36:02.306Z,5.93
2022-12-05T03:38:35.842Z,6.07
2022-12-05T03:41:10.643Z,6.18
2022-12-05T03:43:48.417Z,6.18
2022-12-05T03:46:23.192Z,6.56
2022-12-05T03:48:57.318Z,6.04
2022-12-05T03:51:32.495Z,6.39
2022-12-05T03:54:06.716Z,6.25
2022-12-05T03:56:39.048Z,6.81
2022-12-05T03:59:15.043Z,6.34
2022-12-05T04:01:44.776Z,6.35
2022-12-05T04:04:19.995Z,6.34
2022-12-05T04:06:51.761Z,6.23
2022-12-05T04:09:25.713Z,6.00
2022-12-05T04:11:58.754Z,6.53
2022-12-05T04:14:34.035Z,6.23
2022-12-05T04:17:05.233Z,6.25
2022-12-05T04:19:58.983Z,6.50
2022-12-05T04:22:27.707Z,6.40
2022-12-05T04:25:16.397Z,6.23
2022-12-05T04:27:52.315Z,5.95
2022-12-05T04:30:23.095Z,6.41
2022-12-05T04:32:57.212Z,6.08
2022-12-05T04:35:31.439Z,6.01
2022-12-05T04:38:04.653Z,6.34
2022-12-05T04:40:38.388Z,6.05
2022-12-05T04:43:08.186Z,5.93
2022-12-05T04:45:39.972Z,5.83
2022-12-05T04:48:13.075Z,6.02
2022-12-05T04:50:44.944Z,5.82
2022-12-05T04:53:15.380Z,6.13
2022-12-05T04:55:47.592Z,6.26
2022-12-05T04:58:18.337Z,5.84
2022-12-05T05:00:51.650Z,5.91
2022-12-05T05:03:26.202Z,6.06
2022-12-05T05:05:57.416Z,6.39
2022-12-05T05:08:27.378Z,5.99
2022-12-05T05:11:17.568Z,5.95
2022-12-05T05:13:45.757Z,6.00
2022-12-05T05:16:18.105Z,6.01
2022-12-05T05:18:46.996Z,5.90
2022-12-05T05:21:22.808Z,5.85
2022-12-05T05:23:51.443Z,5.92
2022-12-05T05:26:20.316Z,5.97
2022-12-05T05:28:49.422Z,5.98
2022-12-05T05:31:18.404Z,6.15
2022-12-05T05:33:49.888Z,5.98
2022-12-05T05:36:18.365Z,5.84
2022-12-05T05:38:50.290Z,6.10
2022-12-05T05:41:20.221Z,6.16
2022-12-05T05:43:49.477Z,6.37
2022-12-05T05:46:21.337Z,5.94
2022-12-05T05:48:50.451Z,5.85
2022-12-05T05:51:19.806Z,6.08
2022-12-05T05:53:49.785Z,6.05
2022-12-05T05:56:21.805Z,6.63
2022-12-05T05:58:55.989Z,5.77
2022-12-05T06:01:24.380Z,6.31
2022-12-05T06:03:53.193Z,5.92
2022-12-05T06:06:22.779Z,6.00
2022-12-05T06:08:52.301Z,6.28
2022-12-05T06:11:25.742Z,6.42
2022-12-05T06:13:55.469Z,6.24
2022-12-05T06:16:23.661Z,6.53
2022-12-05T06:18:53.246Z,6.01
2022-12-05T06:21:22.516Z,6.45
2022-12-05T06:23:53.068Z,6.20
2022-12-05T06:26:22.709Z,5.80
2022-12-05T06:28:51.632Z,6.05
2022-12-05T06:31:22.657Z,5.91
2022-12-05T06:33:50.753Z,5.88
2022-12-05T06:36:20.701Z,5.98
2022-12-05T06:38:49.394Z,5.74
2022-12-05T06:41:20.956Z,5.87
2022-12-05T06:43:49.213Z,6.20
2022-12-05T06:46:17.396Z,6.14
2022-12-05T06:48:45.539Z,5.76
2022-12-05T06:51:15.515Z,5.93
2022-12-05T06:53:43.983Z,5.91
2022-12-05T06:56:15.243Z,6.56
2022-12-05T06:58:45.997Z,6.36
2022-12-05T07:01:32.755Z,5.89
2022-12-05T07:04:01.355Z,6.12
2022-12-05T07:06:30.051Z,6.08
2022-12-05T07:08:58.301Z,5.74
2022-12-05T07:11:27.087Z,5.76
2022-12-05T07:13:56.477Z,6.33
2022-12-05T07:16:25.153Z,5.72
2022-12-05T07:18:53.410Z,6.39
2022-12-05T07:21:21.995Z,6.28
2022-12-05T07:23:51.233Z,6.24
2022-12-05T07:26:21.969Z,6.10
2022-12-05T07:28:51.442Z,5.94
2022-12-05T07:31:23.119Z,6.33
2022-12-05T07:33:51.678Z,6.17
2022-12-05T07:36:22.477Z,6.04
2022-12-05T07:38:55.551Z,6.53
2022-12-05T07:41:25.979Z,6.53
2022-12-05T07:43:56.136Z,6.44
2022-12-05T07:46:26.909Z,6.01
2022-12-05T07:48:55.856Z,6.13
2022-12-05T07:51:24.098Z,6.48
2022-12-05T07:53:52.359Z,6.95
2022-12-05T07:56:21.668Z,6.93
2022-12-05T07:58:51.367Z,6.47
2022-12-05T08:01:21.509Z,6.40
2022-12-05T08:03:51.895Z,6.13
2022-12-05T08:06:21.896Z,6.27
2022-12-05T08:08:51.239Z,6.44
2022-12-05T08:11:21.563Z,6.51
2022-12-05T08:13:50.546Z,6.70
2022-12-05T08:16:21.309Z,6.56
2022-12-05T08:18:54.871Z,6.83
2022-12-05T08:21:25.240Z,6.56
2022-12-05T08:23:53.942Z,6.43
2022-12-05T08:26:24.663Z,6.96
2022-12-05T08:28:54.493Z,6.89
2022-12-05T08:31:24.450Z,7.24
2022-12-05T08:33:59.018Z,6.67
2022-12-05T08:36:28.709Z,7.01
2022-12-05T08:38:58.145Z,7.16
2022-12-05T08:41:28.788Z,7.22
2022-12-05T08:43:58.344Z,7.06
2022-12-05T08:46:26.976Z,7.04
2022-12-05T08:48:56.720Z,6.60
2022-12-05T08:51:24.818Z,6.99
2022-12-05T08:53:53.676Z,6.89
2022-12-05T08:56:26.846Z,7.18
2022-12-05T08:59:02.920Z,6.95
2022-12-05T09:01:34.551Z,7.38
2022-12-05T09:04:05.576Z,6.96
2022-12-05T09:06:35.703Z,6.86
2022-12-05T09:09:06.526Z,6.78
2022-12-05T09:11:38.042Z,6.99
2022-12-05T09:14:06.417Z,6.72
2022-12-05T09:16:38.545Z,7.27
2022-12-05T09:19:13.409Z,6.91
2022-12-05T09:21:42.132Z,7.24
2022-12-05T09:24:11.979Z,6.92
2022-12-05T09:26:41.096Z,6.27
2022-12-05T09:29:15.746Z,6.77
2022-12-05T09:31:45.946Z,7.09
2022-12-05T09:34:18.145Z,6.84
2022-12-05T09:36:55.706Z,6.80
2022-12-05T09:39:29.866Z,6.72
2022-12-05T09:42:18.424Z,6.42
2022-12-05T09:44:57.590Z,6.58
2022-12-05T09:47:35.624Z,6.16
2022-12-05T09:50:15.501Z,6.31
2022-12-05T09:52:53.111Z,6.21
2022-12-05T09:55:22.226Z,6.34
2022-12-05T09:57:53.933Z,6.36
2022-12-05T10:00:22.383Z,6.34
2022-12-05T10:03:02.524Z,6.38
2022-12-05T10:05:41.881Z,6.22
2022-12-05T10:08:19.428Z,6.63
2022-12-05T10:11:00.334Z,6.75
2022-12-05T10:13:46.463Z,6.50
2022-12-05T10:16:20.895Z,6.75
2022-12-05T10:18:56.424Z,6.60
2022-12-05T10:21:33.872Z,5.92
2022-12-05T10:24:04.264Z,6.46
2022-12-05T10:26:37.141Z,6.46
2022-12-05T10:29:19.168Z,6.79
2022-12-05T10:31:50.205Z,6.66
2022-12-05T10:34:29.688Z,6.71
2022-12-05T10:37:09.399Z,6.41
2022-12-05T10:39:38.356Z,6.90
2022-12-05T10:42:08.729Z,7.52
2022-12-05T10:44:37.830Z,7.07
2022-12-05T10:47:06.464Z,7.09
2022-12-05T10:49:35.671Z,6.75
2022-12-05T10:52:05.702Z,6.65
2022-12-05T10:54:43.880Z,6.76
2022-12-05T10:57:23.862Z,6.50
2022-12-05T10:59:52.647Z,6.63
2022-12-05T11:02:26.064Z,6.64
2022-12-05T11:04:55.345Z,6.68
2022-12-05T11:07:31.744Z,6.36
2022-12-05T11:10:02.215Z,6.21
2022-12-05T11:12:37.688Z,6.21
2022-12-05T11:15:22.613Z,6.24
2022-12-05T11:17:51.432Z,6.40
2022-12-05T11:20:38.877Z,6.42
2022-12-05T11:23:29.716Z,6.83
2022-12-05T11:25:59.511Z,7.05
2022-12-05T11:28:36.982Z,7.14
2022-12-05T11:31:08.931Z,7.13
2022-12-05T11:33:38.120Z,6.86
2022-12-05T11:36:14.541Z,6.34
2022-12-05T11:38:44.781Z,6.44
2022-12-05T11:41:37.464Z,6.52
2022-12-05T11:44:28.373Z,6.82
2022-12-05T11:47:10.769Z,7.00
2022-12-05T11:49:56.558Z,6.76
2022-12-05T11:52:40.577Z,6.29
2022-12-05T11:55:17.007Z,6.03
2022-12-05T11:58:00.541Z,6.06
2022-12-05T12:00:38.179Z,6.12
2022-12-05T12:03:22.796Z,6.10
2022-12-05T12:06:02.472Z,5.94
2022-12-05T12:08:33.939Z,6.28
2022-12-05T12:11:11.748Z,6.38
2022-12-05T12:13:51.740Z,6.33
2022-12-05T12:16:27.964Z,6.46
2022-12-05T12:19:26.238Z,6.35
2022-12-05T12:22:20.818Z,6.72
2022-12-05T12:25:06.161Z,6.86
2022-12-05T12:27:52.232Z,6.77
2022-12-05T12:30:23.477Z,6.41
2022-12-05T12:33:04.759Z,6.24
2022-12-05T12:35:39.377Z,6.59
2022-12-05T12:38:22.223Z,6.36
2022-12-05T12:40:54.326Z,6.43
2022-12-05T12:43:54.721Z,6.31
2022-12-05T12:46:37.390Z,6.32
2022-12-05T12:49:29.689Z,6.19
2022-12-05T12:52:02.638Z,6.26
2022-12-05T12:55:09.076Z,6.40
2022-12-05T12:57:56.560Z,6.42
2022-12-05T13:00:41.007Z,6.40
2022-12-05T13:03:15.623Z,6.66
2022-12-05T13:05:47.816Z,6.46
2022-12-05T13:08:25.233Z,6.35
2022-12-05T13:10:54.829Z,6.57
2022-12-05T13:13:28.027Z,6.27
2022-12-05T13:16:01.664Z,6.66
2022-12-05T13:18:30.164Z,6.61
2022-12-05T13:21:01.068Z,6.55
2022-12-05T13:23:32.131Z,6.66
2022-12-05T13:26:02.513Z,6.44
2022-12-05T13:28:33.296Z,6.59
2022-12-05T13:31:05.899Z,6.34
2022-12-05T13:33:37.038Z,6.47
2022-12-05T13:36:26.411Z,6.58
2022-12-05T13:39:17.595Z,6.89
2022-12-05T13:42:06.190Z,7.12
2022-12-05T13:44:39.578Z,6.81
2022-12-05T13:47:24.338Z,6.98
2022-12-05T13:49:55.625Z,6.92
2022-12-05T13:52:28.233Z,6.96
2022-12-05T13:55:01.724Z,6.83
2022-12-05T13:57:51.771Z,7.36
2022-12-05T14:00:28.943Z,6.90
2022-12-05T14:03:03.415Z,7.09
2022-12-05T14:05:54.486Z,6.83
2022-12-05T14:08:54.370Z,6.96
2022-12-05T14:11:22.725Z,6.71
2022-12-05T14:13:51.174Z,6.77
2022-12-05T14:16:50.796Z,6.79
2022-12-05T14:19:51.681Z,6.79
2022-12-05T14:25:25.566Z,6.95
2022-12-05T14:28:01.406Z,6.77
2022-12-05T14:30:42.219Z,7.02
2022-12-05T14:33:15.958Z,7.02
2022-12-05T14:35:49.139Z,7.16
2022-12-05T14:38:27.661Z,7.05
2022-12-05T14:41:06.503Z,7.13
2022-12-05T14:43:36.026Z,7.14
2022-12-05T14:46:08.026Z,7.05
2022-12-05T14:48:47.097Z,7.01
2022-12-05T14:51:51.675Z,6.88
2022-12-05T14:54:21.674Z,6.87
2022-12-05T14:56:54.621Z,6.96
2022-12-05T14:59:29.046Z,6.81
2022-12-05T15:02:00.998Z,7.03
2022-12-05T15:04:39.861Z,6.89
2022-12-05T15:07:11.671Z,6.60
2022-12-05T15:09:51.562Z,6.52
2022-12-05T15:12:24.776Z,6.59
2022-12-05T15:15:02.525Z,6.68
2022-12-05T15:17:38.274Z,6.87
2022-12-05T15:20:15.407Z,6.85
2022-12-05T15:22:43.856Z,7.06
2022-12-05T15:25:36.843Z,7.05
2022-12-05T15:28:18.830Z,7.52
2022-12-05T15:30:56.895Z,7.25
2022-12-05T15:33:27.026Z,7.50
2022-12-05T15:35:56.681Z,6.47
2022-12-05T15:38:29.831Z,6.68
2022-12-05T15:40:58.657Z,7.21
2022-12-05T15:43:33.175Z,7.29
2022-12-05T15:46:24.017Z,7.33
2022-12-05T15:48:53.165Z,7.51
2022-12-05T15:51:24.845Z,7.65
2022-12-05T15:53:57.756Z,7.38
2022-12-05T15:56:31.974Z,7.25
2022-12-05T15:59:06.935Z,7.36
2022-12-05T16:01:42.291Z,6.94
2022-12-05T16:04:18.203Z,6.95
2022-12-05T16:06:50.521Z,7.35
2022-12-05T16:09:21.276Z,7.56
2022-12-05T16:11:55.002Z,7.30
2022-12-05T16:17:17.286Z,7.48
2022-12-05T16:19:46.040Z,7.41
2022-12-05T16:22:24.871Z,6.82
2022-12-05T16:25:01.032Z,6.64
2022-12-05T16:27:31.269Z,6.32
2022-12-05T16:30:18.094Z,6.31
2022-12-05T16:32:49.159Z,6.31
2022-12-05T16:35:45.597Z,6.16
2022-12-05T16:38:15.926Z,6.17
2022-12-05T16:40:54.124Z,6.50
2022-12-05T16:43:27.195Z,6.49
2022-12-05T16:45:59.850Z,6.04
2022-12-05T16:48:29.943Z,6.24
2022-12-05T16:51:19.655Z,6.11
2022-12-05T16:53:51.073Z,6.47
2022-12-05T16:56:23.292Z,6.00
2022-12-05T16:58:52.879Z,6.08
2022-12-05T17:01:24.740Z,6.37
2022-12-05T17:03:53.947Z,6.64
2022-12-05T17:06:24.297Z,6.43
2022-12-05T17:08:52.960Z,6.41
2022-12-05T17:11:24.389Z,6.19
2022-12-05T17:13:53.297Z,6.35
2022-12-05T17:16:23.316Z,6.72
2022-12-05T17:18:51.679Z,6.64
2022-12-05T17:21:22.329Z,6.75
2022-12-05T17:23:51.680Z,6.51
2022-12-05T17:26:21.673Z,6.58
2022-12-05T17:28:50.809Z,6.56
2022-12-05T17:31:21.834Z,6.67
2022-12-05T17:33:53.083Z,6.28
2022-12-05T17:36:21.971Z,6.19
2022-12-05T17:38:50.378Z,6.19
2022-12-05T17:41:20.668Z,6.93
2022-12-05T17:43:49.052Z,6.92
2022-12-05T17:46:19.962Z,6.97
2022-12-05T17:48:48.900Z,6.88
2022-12-05T17:51:19.248Z,6.89
2022-12-05T17:53:47.849Z,6.46
2022-12-05T17:56:16.710Z,6.42
2022-12-05T17:58:45.027Z,6.37
2022-12-05T18:01:16.490Z,6.54
2022-12-05T18:03:44.966Z,6.33
2022-12-05T18:06:13.352Z,6.26
2022-12-05T18:08:45.020Z,6.11
2022-12-05T18:11:15.344Z,5.74
2022-12-05T18:13:43.975Z,6.19
2022-12-05T18:16:12.461Z,6.49
2022-12-05T18:18:41.108Z,6.40
2022-12-05T18:21:11.219Z,6.25
2022-12-05T18:23:40.813Z,6.13
2022-12-05T18:26:11.668Z,6.30
2022-12-05T18:28:40.708Z,6.18
2022-12-05T18:31:11.940Z,6.37
2022-12-05T18:33:40.834Z,6.33
2022-12-05T18:36:11.533Z,6.37
2022-12-05T18:38:40.815Z,6.45
2022-12-05T18:41:11.024Z,6.56
2022-12-05T18:43:40.175Z,6.54
2022-12-05T18:46:08.554Z,6.77
2022-12-05T18:48:40.088Z,6.46
2022-12-05T18:51:12.063Z,6.36
2022-12-05T18:53:40.980Z,6.29
2022-12-05T18:56:22.326Z,6.37
2022-12-05T18:58:54.997Z,6.47
2022-12-05T19:01:23.546Z,6.55
2022-12-05T19:03:52.188Z,6.08
2022-12-05T19:06:23.104Z,6.44
2022-12-05T19:08:55.021Z,6.24
2022-12-05T19:11:26.491Z,6.25
2022-12-05T19:13:56.404Z,6.28
2022-12-05T19:16:25.278Z,6.38
2022-12-05T19:18:56.021Z,6.58
2022-12-05T19:21:24.911Z,6.34
2022-12-05T19:23:53.613Z,6.71
2022-12-05T19:26:22.567Z,6.65
2022-12-05T19:28:52.386Z,6.65
2022-12-05T19:31:22.500Z,6.50
2022-12-05T19:33:52.530Z,6.45
2022-12-05T19:36:22.230Z,6.47
2022-12-05T19:38:52.680Z,6.93
2022-12-05T19:41:24.000Z,7.03
2022-12-05T19:43:54.556Z,7.21
2022-12-05T19:46:25.128Z,7.27
2022-12-05T19:48:54.323Z,7.36
2022-12-05T19:51:22.640Z,7.48
2022-12-05T19:53:50.948Z,7.52
2022-12-05T19:56:22.232Z,7.23
2022-12-05T19:58:54.442Z,7.40
2022-12-05T20:01:25.668Z,7.51
2022-12-05T20:03:55.810Z,7.37
2022-12-05T20:06:25.193Z,7.51
2022-12-05T20:08:54.600Z,7.33
2022-12-05T20:11:25.848Z,7.09
2022-12-05T20:13:57.647Z,7.26
2022-12-05T20:16:27.826Z,7.38
2022-12-05T20:18:58.207Z,7.16
2022-12-05T20:21:27.778Z,7.27
2022-12-05T20:23:56.554Z,7.09
2022-12-05T20:26:26.664Z,7.20
2022-12-05T20:28:56.423Z,6.70
2022-12-05T20:31:26.797Z,7.32
2022-12-05T20:33:55.707Z,7.45
2022-12-05T20:36:26.144Z,7.32
2022-12-05T20:38:59.104Z,7.50
2022-12-05T20:41:28.442Z,7.32
2022-12-05T20:43:59.777Z,7.17
2022-12-05T20:46:30.021Z,7.00
2022-12-05T20:48:58.636Z,7.23
2022-12-05T20:51:29.273Z,7.45
2022-12-05T20:53:59.806Z,7.49
2022-12-05T20:56:29.451Z,7.60
2022-12-05T20:59:01.090Z,7.55
2022-12-05T21:01:31.202Z,7.31
2022-12-05T21:04:00.115Z,7.33
2022-12-05T21:06:30.809Z,7.20
2022-12-05T21:09:00.306Z,6.68
2022-12-05T21:11:30.435Z,6.54
2022-12-05T21:14:01.937Z,6.72
2022-12-05T21:16:30.545Z,6.68
2022-12-05T21:19:00.920Z,6.00
2022-12-05T21:21:30.030Z,6.14
2022-12-05T21:23:59.999Z,6.12
2022-12-05T21:26:31.243Z,6.05
2022-12-05T21:29:02.282Z,6.26
2022-12-05T21:31:32.959Z,6.00
2022-12-05T21:34:03.452Z,5.97
2022-12-05T21:36:34.181Z,6.02
2022-12-05T21:39:02.761Z,6.12
2022-12-05T21:41:31.028Z,6.05
2022-12-05T21:44:01.563Z,6.04
2022-12-05T21:46:29.813Z,6.17
2022-12-05T21:49:00.370Z,6.34
2022-12-05T21:51:29.040Z,6.29
2022-12-05T21:53:57.756Z,6.36
2022-12-05T21:56:26.414Z,6.52
2022-12-05T21:58:54.757Z,6.51
2022-12-05T22:01:27.874Z,6.34
2022-12-05T22:03:59.385Z,6.29
2022-12-05T22:06:28.337Z,6.25
2022-12-05T22:08:57.536Z,6.30
2022-12-05T22:11:26.411Z,6.21
2022-12-05T22:13:54.746Z,5.81
2022-12-05T22:16:30.873Z,5.88
2022-12-05T22:19:01.107Z,6.07
2022-12-05T22:21:29.895Z,5.94
2022-12-05T22:23:58.405Z,5.92
2022-12-05T22:26:27.521Z,5.76
2022-12-05T22:28:57.181Z,5.59
2022-12-05T22:31:26.836Z,5.94
2022-12-05T22:33:55.120Z,5.69
2022-12-05T22:36:24.267Z,5.93
2022-12-05T22:38:52.707Z,5.93
2022-12-05T22:41:22.851Z,5.95
2022-12-05T22:43:55.695Z,5.98
2022-12-05T22:46:24.195Z,6.16
2022-12-05T22:48:54.443Z,6.20
2022-12-05T22:51:23.491Z,5.95
2022-12-05T22:53:52.331Z,5.83
2022-12-05T22:56:22.416Z,6.10
2022-12-05T22:58:54.100Z,6.04
2022-12-05T23:01:24.627Z,6.20
2022-12-05T23:03:57.681Z,6.03
2022-12-05T23:06:26.711Z,6.23
2022-12-05T23:08:55.860Z,6.17
2022-12-05T23:11:24.861Z,5.91
2022-12-05T23:14:01.474Z,6.03
2022-12-05T23:16:34.387Z,6.06
2022-12-05T23:19:06.685Z,6.01
2022-12-05T23:21:37.330Z,5.99
2022-12-05T23:24:08.664Z,5.79
2022-12-05T23:26:39.943Z,5.66
2022-12-05T23:29:08.510Z,5.78
2022-12-05T23:31:36.877Z,5.93
2022-12-05T23:34:07.104Z,5.81
2022-12-05T23:36:35.977Z,5.63
2022-12-05T23:39:04.782Z,5.74
2022-12-05T23:41:33.166Z,5.99
2022-12-05T23:44:01.522Z,5.87
2022-12-05T23:46:30.822Z,6.30
2022-12-05T23:48:59.318Z,6.26
2022-12-05T23:51:30.337Z,6.15
2022-12-05T23:54:00.938Z,6.28
2022-12-05T23:56:31.167Z,6.24
2022-12-05T23:58:59.977Z,6.19
